sensor_id;sensor_type;location;lat;lon;timestamp;pressure;altitude;pressure_sealevel;temperature;humidity
11515;BME280;5814;41.936;25.556;2022-12-20T00:02:16;112497.60;;;-145.99;100.00
11515;BME280;5814;41.936;25.556;2022-12-20T00:04:43;112497.60;;;-145.99;100.00
11515;BME280;5814;41.936;25.556;2022-12-20T00:07:10;112497.60;;;-145.99;100.00
11515;BME280;5814;41.936;25.556;2022-12-20T00:09:37;112497.60;;;-145.99;100.00
11515;BME280;5814;41.936;25.556;2022-12-20T00:12:05;112497.60;;;-145.99;100.00
11515;BME280;5814;41.936;25.556;2022-12-20T00:14:32;112497.60;;;-145.99;100.00
11515;BME280;5814;41.936;25.556;2022-12-20T00:16:59;112497.60;;;-145.99;100.00
11515;BME280;5814;41.936;25.556;2022-12-20T00:19:26;112497.60;;;-145.99;100.00
11515;BME280;5814;41.936;25.556;2022-12-20T00:21:54;112497.60;;;-145.99;100.00
11515;BME280;5814;41.936;25.556;2022-12-20T00:24:21;112497.60;;;-145.99;100.00
11515;BME280;5814;41.936;25.556;2022-12-20T00:26:48;112497.60;;;-145.99;100.00
11515;BME280;5814;41.936;25.556;2022-12-20T00:29:15;112497.60;;;-145.99;100.00
11515;BME280;5814;41.936;25.556;2022-12-20T00:31:42;112497.60;;;-145.99;100.00
11515;BME280;5814;41.936;25.556;2022-12-20T00:34:09;112497.60;;;-145.99;100.00
11515;BME280;5814;41.936;25.556;2022-12-20T00:36:38;112497.60;;;-145.99;100.00
11515;BME280;5814;41.936;25.556;2022-12-20T00:39:04;112497.60;;;-145.99;100.00
11515;BME280;5814;41.936;25.556;2022-12-20T00:41:32;112497.60;;;-145.99;100.00
11515;BME280;5814;41.936;25.556;2022-12-20T00:43:59;112497.60;;;-145.99;100.00
11515;BME280;5814;41.936;25.556;2022-12-20T00:46:26;112497.60;;;-145.99;100.00
11515;BME280;5814;41.936;25.556;2022-12-20T00:48:53;112497.60;;;-145.99;100.00
11515;BME280;5814;41.936;25.556;2022-12-20T00:51:21;101494.68;;;-1.47;100.00
11515;BME280;5814;41.936;25.556;2022-12-20T00:53:47;112497.60;;;-145.99;100.00
11515;BME280;5814;41.936;25.556;2022-12-20T00:56:14;112497.60;;;-145.99;100.00
11515;BME280;5814;41.936;25.556;2022-12-20T00:58:42;112497.60;;;-145.99;100.00
11515;BME280;5814;41.936;25.556;2022-12-20T01:01:22;112497.60;;;-145.99;100.00
11515;BME280;5814;41.936;25.556;2022-12-20T01:03:49;112497.60;;;-145.99;100.00
11515;BME280;5814;41.936;25.556;2022-12-20T01:06:16;112497.60;;;-145.99;100.00
11515;BME280;5814;41.936;25.556;2022-12-20T01:08:43;112497.60;;;-145.99;100.00
11515;BME280;5814;41.936;25.556;2022-12-20T01:11:26;112497.60;;;-145.99;100.00
11515;BME280;5814;41.936;25.556;2022-12-20T01:13:53;112497.60;;;-145.99;100.00
11515;BME280;5814;41.936;25.556;2022-12-20T01:16:22;112497.60;;;-145.99;100.00
11515;BME280;5814;41.936;25.556;2022-12-20T01:18:47;112497.60;;;-145.99;100.00
11515;BME280;5814;41.936;25.556;2022-12-20T01:21:15;112497.60;;;-145.99;100.00
11515;BME280;5814;41.936;25.556;2022-12-20T01:23:42;112497.60;;;-145.99;100.00
11515;BME280;5814;41.936;25.556;2022-12-20T01:26:11;112497.60;;;-145.99;100.00
11515;BME280;5814;41.936;25.556;2022-12-20T01:28:37;112497.60;;;-145.99;100.00
11515;BME280;5814;41.936;25.556;2022-12-20T01:31:05;112497.60;;;-145.99;100.00
11515;BME280;5814;41.936;25.556;2022-12-20T01:33:32;112497.60;;;-145.99;100.00
11515;BME280;5814;41.936;25.556;2022-12-20T01:36:02;112497.60;;;-145.99;100.00
11515;BME280;5814;41.936;25.556;2022-12-20T01:38:27;112497.60;;;-145.99;100.00
11515;BME280;5814;41.936;25.556;2022-12-20T01:40:54;112497.60;;;-145.99;100.00
11515;BME280;5814;41.936;25.556;2022-12-20T01:43:22;112497.60;;;-145.99;100.00
11515;BME280;5814;41.936;25.556;2022-12-20T01:45:49;112497.60;;;-145.99;100.00
11515;BME280;5814;41.936;25.556;2022-12-20T01:48:17;112497.60;;;-145.99;100.00
11515;BME280;5814;41.936;25.556;2022-12-20T01:50:44;112497.60;;;-145.99;100.00
11515;BME280;5814;41.936;25.556;2022-12-20T01:53:10;112497.60;;;-145.99;100.00
11515;BME280;5814;41.936;25.556;2022-12-20T01:55:37;112497.60;;;-145.99;100.00
11515;BME280;5814;41.936;25.556;2022-12-20T01:58:05;112497.60;;;-145.99;100.00
11515;BME280;5814;41.936;25.556;2022-12-20T02:00:32;112497.60;;;-145.99;100.00
11515;BME280;5814;41.936;25.556;2022-12-20T02:02:59;101401.82;;;-2.17;100.00
11515;BME280;5814;41.936;25.556;2022-12-20T02:05:26;101397.41;;;-2.19;100.00
11515;BME280;5814;41.936;25.556;2022-12-20T02:07:54;101413.29;;;-2.18;100.00
11515;BME280;5814;41.936;25.556;2022-12-20T02:10:22;101394.22;;;-2.37;100.00
11515;BME280;5814;41.936;25.556;2022-12-20T02:12:48;101413.31;;;-2.38;100.00
11515;BME280;5814;41.936;25.556;2022-12-20T02:15:40;101408.62;;;-2.45;100.00
11515;BME280;5814;41.936;25.556;2022-12-20T02:18:12;101400.84;;;-2.54;100.00
11515;BME280;5814;41.936;25.556;2022-12-20T02:20:53;101405.52;;;-2.61;100.00
11515;BME280;5814;41.936;25.556;2022-12-20T02:26:29;101401.98;;;-2.69;100.00
11515;BME280;5814;41.936;25.556;2022-12-20T02:29:30;101400.27;;;-2.63;100.00
11515;BME280;5814;41.936;25.556;2022-12-20T02:31:43;101397.97;;;-2.72;100.00
11515;BME280;5814;41.936;25.556;2022-12-20T02:34:09;101404.87;;;-2.71;100.00
11515;BME280;5814;41.936;25.556;2022-12-20T02:36:36;101398.44;;;-2.78;100.00
11515;BME280;5814;41.936;25.556;2022-12-20T02:39:03;101397.60;;;-2.71;100.00
11515;BME280;5814;41.936;25.556;2022-12-20T02:41:33;112497.60;;;-145.99;100.00
11515;BME280;5814;41.936;25.556;2022-12-20T02:44:09;101381.66;;;-2.68;100.00
11515;BME280;5814;41.936;25.556;2022-12-20T02:46:40;101368.59;;;-2.72;100.00
11515;BME280;5814;41.936;25.556;2022-12-20T02:49:09;101363.81;;;-2.74;100.00
11515;BME280;5814;41.936;25.556;2022-12-20T02:51:34;101362.56;;;-2.66;100.00
11515;BME280;5814;41.936;25.556;2022-12-20T02:54:02;101359.39;;;-2.70;100.00
11515;BME280;5814;41.936;25.556;2022-12-20T02:56:35;101355.59;;;-2.69;100.00
11515;BME280;5814;41.936;25.556;2022-12-20T02:59:14;101355.37;;;-2.73;100.00
11515;BME280;5814;41.936;25.556;2022-12-20T03:01:44;101363.92;;;-2.79;100.00
11515;BME280;5814;41.936;25.556;2022-12-20T03:04:11;101352.36;;;-2.87;100.00
11515;BME280;5814;41.936;25.556;2022-12-20T03:06:38;101354.84;;;-2.88;100.00
11515;BME280;5814;41.936;25.556;2022-12-20T03:09:05;101358.56;;;-2.83;100.00
11515;BME280;5814;41.936;25.556;2022-12-20T03:11:32;101360.97;;;-2.85;100.00
11515;BME280;5814;41.936;25.556;2022-12-20T03:14:00;101355.31;;;-3.01;100.00
11515;BME280;5814;41.936;25.556;2022-12-20T03:16:27;101354.36;;;-2.89;100.00
11515;BME280;5814;41.936;25.556;2022-12-20T03:18:54;101354.80;;;-2.75;100.00
11515;BME280;5814;41.936;25.556;2022-12-20T03:21:21;101355.71;;;-2.81;100.00
11515;BME280;5814;41.936;25.556;2022-12-20T03:23:48;101347.21;;;-2.94;100.00
11515;BME280;5814;41.936;25.556;2022-12-20T03:26:15;112497.60;;;-145.99;100.00
11515;BME280;5814;41.936;25.556;2022-12-20T03:28:43;112497.60;;;-145.99;100.00
11515;BME280;5814;41.936;25.556;2022-12-20T03:31:10;112497.60;;;-145.99;100.00
11515;BME280;5814;41.936;25.556;2022-12-20T03:33:37;101341.23;;;-2.81;100.00
11515;BME280;5814;41.936;25.556;2022-12-20T03:36:05;101343.74;;;-2.82;100.00
11515;BME280;5814;41.936;25.556;2022-12-20T03:38:32;101326.78;;;-2.94;100.00
11515;BME280;5814;41.936;25.556;2022-12-20T03:40:59;112497.60;;;-145.99;100.00
11515;BME280;5814;41.936;25.556;2022-12-20T03:43:26;112497.60;;;-145.99;100.00
11515;BME280;5814;41.936;25.556;2022-12-20T03:45:53;112497.60;;;-145.99;100.00
11515;BME280;5814;41.936;25.556;2022-12-20T03:48:20;112497.60;;;-145.99;100.00
11515;BME280;5814;41.936;25.556;2022-12-20T03:50:48;112497.60;;;-145.99;100.00
11515;BME280;5814;41.936;25.556;2022-12-20T03:53:15;112497.60;;;-145.99;100.00
11515;BME280;5814;41.936;25.556;2022-12-20T03:55:42;112497.60;;;-145.99;100.00
11515;BME280;5814;41.936;25.556;2022-12-20T03:58:09;101352.80;;;-2.93;100.00
11515;BME280;5814;41.936;25.556;2022-12-20T04:00:36;101356.63;;;-2.87;100.00
11515;BME280;5814;41.936;25.556;2022-12-20T04:03:03;101345.31;;;-2.90;100.00
11515;BME280;5814;41.936;25.556;2022-12-20T04:05:31;112497.60;;;-145.99;100.00
11515;BME280;5814;41.936;25.556;2022-12-20T04:07:58;112497.60;;;-145.99;100.00
11515;BME280;5814;41.936;25.556;2022-12-20T04:10:25;112497.60;;;-145.99;100.00
11515;BME280;5814;41.936;25.556;2022-12-20T04:12:52;112497.60;;;-145.99;100.00
11515;BME280;5814;41.936;25.556;2022-12-20T04:15:19;112497.60;;;-145.99;100.00
11515;BME280;5814;41.936;25.556;2022-12-20T04:17:47;112497.60;;;-145.99;100.00
11515;BME280;5814;41.936;25.556;2022-12-20T04:20:15;112497.60;;;-145.99;100.00
11515;BME280;5814;41.936;25.556;2022-12-20T04:22:46;112497.60;;;-145.99;100.00
11515;BME280;5814;41.936;25.556;2022-12-20T04:25:14;112497.60;;;-145.99;100.00
11515;BME280;5814;41.936;25.556;2022-12-20T04:27:40;112497.60;;;-145.99;100.00
11515;BME280;5814;41.936;25.556;2022-12-20T04:30:08;112497.60;;;-145.99;100.00
11515;BME280;5814;41.936;25.556;2022-12-20T04:32:36;101327.23;;;-2.45;100.00
11515;BME280;5814;41.936;25.556;2022-12-20T04:35:04;112497.60;;;-145.99;100.00
11515;BME280;5814;41.936;25.556;2022-12-20T04:37:31;112497.60;;;-145.99;100.00
11515;BME280;5814;41.936;25.556;2022-12-20T04:39:58;112497.60;;;-145.99;100.00
11515;BME280;5814;41.936;25.556;2022-12-20T04:42:26;112497.60;;;-145.99;36.16
11515;BME280;5814;41.936;25.556;2022-12-20T04:44:53;112497.60;;;-145.99;100.00
11515;BME280;5814;41.936;25.556;2022-12-20T04:47:20;112497.60;;;-145.99;100.00
11515;BME280;5814;41.936;25.556;2022-12-20T04:49:47;112497.60;;;-145.99;100.00
11515;BME280;5814;41.936;25.556;2022-12-20T04:52:14;112497.60;;;-145.99;100.00
11515;BME280;5814;41.936;25.556;2022-12-20T04:54:47;112497.60;;;-145.99;100.00
11515;BME280;5814;41.936;25.556;2022-12-20T04:57:14;112497.60;;;-145.99;100.00
11515;BME280;5814;41.936;25.556;2022-12-20T04:59:42;112497.60;;;-145.99;100.00
11515;BME280;5814;41.936;25.556;2022-12-20T05:02:09;112497.60;;;-145.99;100.00
11515;BME280;5814;41.936;25.556;2022-12-20T05:04:36;112497.60;;;-145.99;100.00
11515;BME280;5814;41.936;25.556;2022-12-20T05:07:03;112497.60;;;-145.99;100.00
11515;BME280;5814;41.936;25.556;2022-12-20T05:09:30;112497.60;;;-145.99;100.00
11515;BME280;5814;41.936;25.556;2022-12-20T05:11:58;112497.60;;;-145.99;100.00
11515;BME280;5814;41.936;25.556;2022-12-20T05:14:25;112497.60;;;-145.99;100.00
11515;BME280;5814;41.936;25.556;2022-12-20T05:16:52;112497.60;;;-145.99;100.00
11515;BME280;5814;41.936;25.556;2022-12-20T05:19:19;112497.60;;;-145.99;100.00
11515;BME280;5814;41.936;25.556;2022-12-20T05:21:46;112497.60;;;-145.99;100.00
11515;BME280;5814;41.936;25.556;2022-12-20T05:24:19;112497.60;;;-145.99;100.00
11515;BME280;5814;41.936;25.556;2022-12-20T05:26:52;112497.60;;;-145.99;100.00
11515;BME280;5814;41.936;25.556;2022-12-20T05:29:19;112497.60;;;-145.99;100.00
11515;BME280;5814;41.936;25.556;2022-12-20T05:31:46;112497.60;;;-145.99;100.00
11515;BME280;5814;41.936;25.556;2022-12-20T05:34:13;112497.60;;;-145.99;100.00
11515;BME280;5814;41.936;25.556;2022-12-20T05:36:40;112497.60;;;-145.99;100.00
11515;BME280;5814;41.936;25.556;2022-12-20T05:39:09;112497.60;;;-145.99;100.00
11515;BME280;5814;41.936;25.556;2022-12-20T05:41:35;112497.60;;;-145.99;100.00
11515;BME280;5814;41.936;25.556;2022-12-20T05:44:02;112497.60;;;-145.99;100.00
11515;BME280;5814;41.936;25.556;2022-12-20T05:46:29;112497.60;;;-145.99;100.00
11515;BME280;5814;41.936;25.556;2022-12-20T05:48:56;112497.60;;;-145.99;100.00
11515;BME280;5814;41.936;25.556;2022-12-20T05:51:24;112497.60;;;-145.99;100.00
11515;BME280;5814;41.936;25.556;2022-12-20T05:53:51;112497.60;;;-145.99;100.00
11515;BME280;5814;41.936;25.556;2022-12-20T05:56:18;112497.60;;;-145.99;100.00
11515;BME280;5814;41.936;25.556;2022-12-20T05:58:45;112497.60;;;-145.99;100.00
11515;BME280;5814;41.936;25.556;2022-12-20T06:01:12;112497.60;;;-145.99;100.00
11515;BME280;5814;41.936;25.556;2022-12-20T06:03:39;112497.60;;;-145.99;100.00
11515;BME280;5814;41.936;25.556;2022-12-20T06:06:07;112497.60;;;-145.99;100.00
11515;BME280;5814;41.936;25.556;2022-12-20T06:08:34;112497.60;;;-145.99;100.00
11515;BME280;5814;41.936;25.556;2022-12-20T06:11:01;112497.60;;;-145.99;100.00
11515;BME280;5814;41.936;25.556;2022-12-20T06:13:28;112497.60;;;-145.99;100.00
11515;BME280;5814;41.936;25.556;2022-12-20T06:15:56;112497.60;;;-145.99;100.00
11515;BME280;5814;41.936;25.556;2022-12-20T06:18:23;112497.60;;;-145.99;100.00
11515;BME280;5814;41.936;25.556;2022-12-20T06:20:50;112497.60;;;-145.99;100.00
11515;BME280;5814;41.936;25.556;2022-12-20T06:23:17;112497.60;;;-145.99;100.00
11515;BME280;5814;41.936;25.556;2022-12-20T06:25:45;112497.60;;;-145.99;100.00
11515;BME280;5814;41.936;25.556;2022-12-20T06:28:11;112497.60;;;-145.99;100.00
11515;BME280;5814;41.936;25.556;2022-12-20T06:30:39;112497.60;;;-145.99;100.00
11515;BME280;5814;41.936;25.556;2022-12-20T06:33:06;112497.60;;;-145.99;100.00
11515;BME280;5814;41.936;25.556;2022-12-20T06:35:33;112497.60;;;-145.99;100.00
11515;BME280;5814;41.936;25.556;2022-12-20T06:38:00;112497.60;;;-145.99;100.00
11515;BME280;5814;41.936;25.556;2022-12-20T06:40:27;112497.60;;;-145.99;100.00
11515;BME280;5814;41.936;25.556;2022-12-20T06:42:55;112497.60;;;-145.99;100.00
11515;BME280;5814;41.936;25.556;2022-12-20T06:45:23;112497.60;;;-145.99;100.00
11515;BME280;5814;41.936;25.556;2022-12-20T06:47:50;112497.60;;;-145.99;100.00
11515;BME280;5814;41.936;25.556;2022-12-20T06:50:17;112497.60;;;-145.99;100.00
11515;BME280;5814;41.936;25.556;2022-12-20T06:52:45;112497.60;;;-145.99;100.00
11515;BME280;5814;41.936;25.556;2022-12-20T06:55:12;112497.60;;;-145.99;100.00
11515;BME280;5814;41.936;25.556;2022-12-20T06:57:39;112497.60;;;-145.99;100.00
11515;BME280;5814;41.936;25.556;2022-12-20T07:00:07;112497.60;;;-145.99;100.00
11515;BME280;5814;41.936;25.556;2022-12-20T07:02:34;112497.60;;;-145.99;100.00
11515;BME280;5814;41.936;25.556;2022-12-20T07:05:01;112497.60;;;-145.99;100.00
11515;BME280;5814;41.936;25.556;2022-12-20T07:07:29;112497.60;;;-145.99;100.00
11515;BME280;5814;41.936;25.556;2022-12-20T07:09:56;112497.60;;;-145.99;100.00
11515;BME280;5814;41.936;25.556;2022-12-20T07:12:23;112497.60;;;-145.99;100.00
11515;BME280;5814;41.936;25.556;2022-12-20T07:14:50;112497.60;;;-145.99;100.00
11515;BME280;5814;41.936;25.556;2022-12-20T07:17:18;112497.60;;;-145.99;100.00
11515;BME280;5814;41.936;25.556;2022-12-20T07:19:45;112497.60;;;-145.99;100.00
11515;BME280;5814;41.936;25.556;2022-12-20T07:22:12;112497.60;;;-145.99;100.00
11515;BME280;5814;41.936;25.556;2022-12-20T07:24:39;112497.60;;;-145.99;100.00
11515;BME280;5814;41.936;25.556;2022-12-20T07:27:06;112497.60;;;-145.99;100.00
11515;BME280;5814;41.936;25.556;2022-12-20T07:29:33;112497.60;;;-145.99;100.00
11515;BME280;5814;41.936;25.556;2022-12-20T07:32:01;112497.60;;;-145.99;100.00
11515;BME280;5814;41.936;25.556;2022-12-20T07:34:28;112497.60;;;-145.99;100.00
11515;BME280;5814;41.936;25.556;2022-12-20T07:36:55;112497.60;;;-145.99;100.00
11515;BME280;5814;41.936;25.556;2022-12-20T07:39:22;112497.60;;;-145.99;100.00
11515;BME280;5814;41.936;25.556;2022-12-20T07:41:52;112497.60;;;-145.99;100.00
11515;BME280;5814;41.936;25.556;2022-12-20T07:44:20;112497.60;;;-145.99;100.00
11515;BME280;5814;41.936;25.556;2022-12-20T07:46:47;112497.60;;;-145.99;100.00
11515;BME280;5814;41.936;25.556;2022-12-20T07:49:14;112497.60;;;-145.99;100.00
11515;BME280;5814;41.936;25.556;2022-12-20T07:51:46;112497.60;;;-145.99;100.00
11515;BME280;5814;41.936;25.556;2022-12-20T07:54:13;112497.60;;;-145.99;100.00
11515;BME280;5814;41.936;25.556;2022-12-20T07:56:42;112497.60;;;-145.99;100.00
11515;BME280;5814;41.936;25.556;2022-12-20T07:59:06;112497.60;;;-145.99;100.00
11515;BME280;5814;41.936;25.556;2022-12-20T08:01:34;112497.60;;;-145.99;100.00
11515;BME280;5814;41.936;25.556;2022-12-20T08:04:03;112497.60;;;-145.99;100.00
11515;BME280;5814;41.936;25.556;2022-12-20T08:06:29;112497.60;;;-145.99;100.00
11515;BME280;5814;41.936;25.556;2022-12-20T08:08:56;112497.60;;;-145.99;100.00
11515;BME280;5814;41.936;25.556;2022-12-20T08:11:23;112497.60;;;-145.99;100.00
11515;BME280;5814;41.936;25.556;2022-12-20T08:13:50;112497.60;;;-145.99;100.00
11515;BME280;5814;41.936;25.556;2022-12-20T08:16:18;112497.60;;;-145.99;100.00
11515;BME280;5814;41.936;25.556;2022-12-20T08:18:45;112497.60;;;-145.99;100.00
11515;BME280;5814;41.936;25.556;2022-12-20T08:21:12;112497.60;;;-145.99;100.00
11515;BME280;5814;41.936;25.556;2022-12-20T08:23:39;112497.60;;;-145.99;100.00
11515;BME280;5814;41.936;25.556;2022-12-20T08:26:06;112497.60;;;-145.99;100.00
11515;BME280;5814;41.936;25.556;2022-12-20T08:28:33;112497.60;;;-145.99;100.00
11515;BME280;5814;41.936;25.556;2022-12-20T08:31:02;112497.60;;;-145.99;100.00
11515;BME280;5814;41.936;25.556;2022-12-20T08:33:29;112497.60;;;-145.99;100.00
11515;BME280;5814;41.936;25.556;2022-12-20T08:35:57;112497.60;;;-145.99;100.00
11515;BME280;5814;41.936;25.556;2022-12-20T08:38:24;112497.60;;;-145.99;100.00
11515;BME280;5814;41.936;25.556;2022-12-20T08:40:50;112497.60;;;-145.99;100.00
11515;BME280;5814;41.936;25.556;2022-12-20T08:43:17;112497.60;;;-145.99;100.00
11515;BME280;5814;41.936;25.556;2022-12-20T08:45:50;112497.60;;;-145.99;100.00
11515;BME280;5814;41.936;25.556;2022-12-20T08:48:12;112497.60;;;-145.99;100.00
11515;BME280;5814;41.936;25.556;2022-12-20T08:50:39;112497.60;;;-145.99;100.00
11515;BME280;5814;41.936;25.556;2022-12-20T08:53:06;112497.60;;;-145.99;100.00
11515;BME280;5814;41.936;25.556;2022-12-20T08:55:33;112497.60;;;-145.99;100.00
11515;BME280;5814;41.936;25.556;2022-12-20T08:58:01;112497.60;;;-145.99;100.00
11515;BME280;5814;41.936;25.556;2022-12-20T09:00:28;112497.60;;;-145.99;100.00
11515;BME280;5814;41.936;25.556;2022-12-20T09:02:55;112497.60;;;-145.99;100.00
11515;BME280;5814;41.936;25.556;2022-12-20T09:05:22;112497.60;;;-145.99;100.00
11515;BME280;5814;41.936;25.556;2022-12-20T09:07:49;112497.60;;;-145.99;100.00
11515;BME280;5814;41.936;25.556;2022-12-20T09:10:17;112497.60;;;-145.99;100.00
11515;BME280;5814;41.936;25.556;2022-12-20T09:12:45;112497.60;;;-145.99;100.00
11515;BME280;5814;41.936;25.556;2022-12-20T09:15:12;112497.60;;;-145.99;100.00
11515;BME280;5814;41.936;25.556;2022-12-20T09:17:39;112497.60;;;-145.99;100.00
11515;BME280;5814;41.936;25.556;2022-12-20T09:20:07;112497.60;;;-145.99;100.00
11515;BME280;5814;41.936;25.556;2022-12-20T09:22:34;112497.60;;;-145.99;100.00
11515;BME280;5814;41.936;25.556;2022-12-20T09:25:02;112497.60;;;-145.99;100.00
11515;BME280;5814;41.936;25.556;2022-12-20T09:27:29;112497.60;;;-145.99;100.00
11515;BME280;5814;41.936;25.556;2022-12-20T09:29:56;112497.60;;;-145.99;100.00
11515;BME280;5814;41.936;25.556;2022-12-20T09:32:23;112497.60;;;-145.99;100.00
11515;BME280;5814;41.936;25.556;2022-12-20T09:34:50;112497.60;;;-145.99;100.00
11515;BME280;5814;41.936;25.556;2022-12-20T09:37:18;112497.60;;;-145.99;100.00
11515;BME280;5814;41.936;25.556;2022-12-20T09:39:47;112497.60;;;-145.99;100.00
11515;BME280;5814;41.936;25.556;2022-12-20T09:42:12;112497.60;;;-145.99;100.00
11515;BME280;5814;41.936;25.556;2022-12-20T09:44:39;112497.60;;;-145.99;100.00
11515;BME280;5814;41.936;25.556;2022-12-20T09:47:13;112497.60;;;-145.99;100.00
11515;BME280;5814;41.936;25.556;2022-12-20T09:49:39;112497.60;;;-145.99;100.00
11515;BME280;5814;41.936;25.556;2022-12-20T09:52:18;112497.60;;;-145.99;100.00
11515;BME280;5814;41.936;25.556;2022-12-20T09:55:00;112497.60;;;-145.99;100.00
11515;BME280;5814;41.936;25.556;2022-12-20T09:57:28;112497.60;;;-145.99;100.00
11515;BME280;5814;41.936;25.556;2022-12-20T09:59:52;112497.60;;;-145.99;100.00
11515;BME280;5814;41.936;25.556;2022-12-20T10:02:20;112497.60;;;-145.99;100.00
11515;BME280;5814;41.936;25.556;2022-12-20T10:04:46;112497.60;;;-145.99;100.00
11515;BME280;5814;41.936;25.556;2022-12-20T10:07:34;112497.60;;;-145.99;100.00
11515;BME280;5814;41.936;25.556;2022-12-20T10:10:13;112497.60;;;-145.99;100.00
11515;BME280;5814;41.936;25.556;2022-12-20T10:12:45;112497.60;;;-145.99;100.00
11515;BME280;5814;41.936;25.556;2022-12-20T10:15:27;112497.60;;;-145.99;100.00
11515;BME280;5814;41.936;25.556;2022-12-20T10:20:40;112497.60;;;-145.99;100.00
11515;BME280;5814;41.936;25.556;2022-12-20T10:23:16;112497.60;;;-145.99;100.00
11515;BME280;5814;41.936;25.556;2022-12-20T10:25:45;112497.60;;;-145.99;100.00
11515;BME280;5814;41.936;25.556;2022-12-20T10:28:12;112497.60;;;-145.99;100.00
11515;BME280;5814;41.936;25.556;2022-12-20T10:30:38;112497.60;;;-145.99;100.00
11515;BME280;5814;41.936;25.556;2022-12-20T10:33:07;112497.60;;;-145.99;100.00
11515;BME280;5814;41.936;25.556;2022-12-20T10:35:37;112497.60;;;-145.99;100.00
11515;BME280;5814;41.936;25.556;2022-12-20T10:38:05;112497.60;;;-145.99;100.00
11515;BME280;5814;41.936;25.556;2022-12-20T10:40:32;112497.60;;;-145.99;100.00
11515;BME280;5814;41.936;25.556;2022-12-20T10:42:58;112497.60;;;-145.99;100.00
11515;BME280;5814;41.936;25.556;2022-12-20T10:45:41;112497.60;;;-145.99;100.00
11515;BME280;5814;41.936;25.556;2022-12-20T10:48:27;112497.60;;;-145.99;100.00
11515;BME280;5814;41.936;25.556;2022-12-20T10:50:57;112497.60;;;-145.99;100.00
11515;BME280;5814;41.936;25.556;2022-12-20T10:53:23;112497.60;;;-145.99;100.00
11515;BME280;5814;41.936;25.556;2022-12-20T10:55:50;112497.60;;;-145.99;100.00
11515;BME280;5814;41.936;25.556;2022-12-20T11:01:10;112497.60;;;-145.99;100.00
11515;BME280;5814;41.936;25.556;2022-12-20T11:06:13;112497.60;;;-145.99;100.00
11515;BME280;5814;41.936;25.556;2022-12-20T11:08:37;112497.60;;;-145.99;100.00
11515;BME280;5814;41.936;25.556;2022-12-20T11:11:18;112497.60;;;-145.99;100.00
11515;BME280;5814;41.936;25.556;2022-12-20T11:13:45;112497.60;;;-145.99;100.00
11515;BME280;5814;41.936;25.556;2022-12-20T11:16:21;112497.60;;;-145.99;100.00
11515;BME280;5814;41.936;25.556;2022-12-20T11:18:54;112497.60;;;-145.99;100.00
11515;BME280;5814;41.936;25.556;2022-12-20T11:21:29;112497.60;;;-145.99;100.00
11515;BME280;5814;41.936;25.556;2022-12-20T11:23:56;112497.60;;;-145.99;100.00
11515;BME280;5814;41.936;25.556;2022-12-20T11:26:44;112497.60;;;-145.99;100.00
11515;BME280;5814;41.936;25.556;2022-12-20T11:30:16;112497.60;;;-145.99;100.00
11515;BME280;5814;41.936;25.556;2022-12-20T11:32:12;112497.60;;;-145.99;100.00
11515;BME280;5814;41.936;25.556;2022-12-20T11:34:53;112497.60;;;-145.99;100.00
11515;BME280;5814;41.936;25.556;2022-12-20T11:37:20;112497.60;;;-145.99;100.00
11515;BME280;5814;41.936;25.556;2022-12-20T11:40:05;112497.60;;;-145.99;100.00
11515;BME280;5814;41.936;25.556;2022-12-20T11:42:51;112497.60;;;-145.99;100.00
11515;BME280;5814;41.936;25.556;2022-12-20T11:45:44;112497.60;;;-145.99;100.00
11515;BME280;5814;41.936;25.556;2022-12-20T11:48:24;112497.60;;;-145.99;100.00
11515;BME280;5814;41.936;25.556;2022-12-20T11:50:55;112497.60;;;-145.99;100.00
11515;BME280;5814;41.936;25.556;2022-12-20T11:53:37;112497.60;;;-145.99;100.00
11515;BME280;5814;41.936;25.556;2022-12-20T11:56:07;112497.60;;;-145.99;100.00
11515;BME280;5814;41.936;25.556;2022-12-20T11:58:41;112497.60;;;-145.99;100.00
11515;BME280;5814;41.936;25.556;2022-12-20T12:01:06;112497.60;;;-145.99;100.00
11515;BME280;5814;41.936;25.556;2022-12-20T12:03:35;112497.60;;;-145.99;100.00
11515;BME280;5814;41.936;25.556;2022-12-20T12:06:04;112497.60;;;-145.99;100.00
11515;BME280;5814;41.936;25.556;2022-12-20T12:08:42;112497.60;;;-145.99;100.00
11515;BME280;5814;41.936;25.556;2022-12-20T12:11:17;112497.60;;;-145.99;100.00
11515;BME280;5814;41.936;25.556;2022-12-20T12:13:41;112497.60;;;-145.99;100.00
11515;BME280;5814;41.936;25.556;2022-12-20T12:16:11;112497.60;;;-145.99;100.00
11515;BME280;5814;41.936;25.556;2022-12-20T12:18:38;112497.60;;;-145.99;100.00
11515;BME280;5814;41.936;25.556;2022-12-20T12:21:21;112497.60;;;-145.99;100.00
11515;BME280;5814;41.936;25.556;2022-12-20T12:24:03;112497.60;;;-145.99;100.00
11515;BME280;5814;41.936;25.556;2022-12-20T12:26:33;112497.60;;;-145.99;100.00
11515;BME280;5814;41.936;25.556;2022-12-20T12:29:02;112497.60;;;-145.99;100.00
11515;BME280;5814;41.936;25.556;2022-12-20T12:31:39;112497.60;;;-145.99;100.00
11515;BME280;5814;41.936;25.556;2022-12-20T12:34:20;112497.60;;;-145.99;100.00
11515;BME280;5814;41.936;25.556;2022-12-20T12:39:39;112497.60;;;-145.99;100.00
11515;BME280;5814;41.936;25.556;2022-12-20T12:42:22;112497.60;;;-145.99;100.00
11515;BME280;5814;41.936;25.556;2022-12-20T12:44:52;112497.60;;;-145.99;100.00
11515;BME280;5814;41.936;25.556;2022-12-20T12:47:21;112497.60;;;-145.99;100.00